createdAt,value
2019-01-02T18:58:56.406Z,19.57
2019-01-02T19:01:44.549Z,14.67
2019-01-02T19:04:32.484Z,24.80
2019-01-02T19:07:20.264Z,16.73
2019-01-02T19:10:08.478Z,22.47
2019-01-02T19:12:56.010Z,29.13
2019-01-02T19:15:43.931Z,20.43
2019-01-02T19:18:31.841Z,18.77
2019-01-02T19:21:19.560Z,14.43
2019-01-02T19:24:07.545Z,16.13
2019-01-02T19:26:55.569Z,15.47
2019-01-02T19:29:43.549Z,13.77
2019-01-02T19:32:31.565Z,18.80
2019-01-02T19:35:19.272Z,16.20
2019-01-02T19:38:06.905Z,21.13
2019-01-02T19:40:54.737Z,27.57
2019-01-02T19:43:42.792Z,19.90
2019-01-02T19:46:30.973Z,19.50
2019-01-02T19:49:18.968Z,17.17
2019-01-02T19:52:06.889Z,15.63
2019-01-02T19:54:54.645Z,19.87
2019-01-02T19:57:42.671Z,17.77
2019-01-02T20:00:30.283Z,16.87
2019-01-02T20:03:18.343Z,17.23
2019-01-02T20:06:06.229Z,16.63
2019-01-02T20:08:54.222Z,33.07
2019-01-02T20:11:42.022Z,50.67
2019-01-02T20:14:29.914Z,81.43
2019-01-02T20:17:18.037Z,104.40
2019-01-02T20:20:08.928Z,157.83
2019-01-02T20:22:56.992Z,45.40
2019-01-02T20:25:44.677Z,27.53
2019-01-02T20:28:32.305Z,25.87
2019-01-02T20:31:20.255Z,20.83
2019-01-02T20:34:08.406Z,19.00
2019-01-02T20:36:56.265Z,26.67
2019-01-02T20:39:43.917Z,17.37
2019-01-02T20:42:31.674Z,22.33
2019-01-02T20:45:20.054Z,22.07
2019-01-02T20:48:07.813Z,19.33
2019-01-02T20:50:55.671Z,19.63
2019-01-02T20:53:43.775Z,19.87
2019-01-02T20:56:31.560Z,21.13
2019-01-02T20:59:19.398Z,20.20
2019-01-02T21:02:07.265Z,19.13
2019-01-02T21:04:55.208Z,15.10
2019-01-02T21:07:43.273Z,13.50
2019-01-02T21:10:31.111Z,17.00
2019-01-02T21:13:19.053Z,14.43
2019-01-02T21:16:06.934Z,14.57
2019-01-02T21:18:54.818Z,11.83
2019-01-02T21:21:42.434Z,18.50
2019-01-02T21:24:30.043Z,18.77
2019-01-02T21:27:18.067Z,16.60
2019-01-02T21:30:08.789Z,18.87
2019-01-02T21:32:56.323Z,13.27
2019-01-02T21:35:44.101Z,16.60
2019-01-02T21:38:31.773Z,17.47
2019-01-02T21:41:19.756Z,15.30
2019-01-02T21:44:07.457Z,11.30
2019-01-02T21:46:55.376Z,18.03
2019-01-02T21:49:43.341Z,15.33
2019-01-02T21:52:31.361Z,18.20
2019-01-02T21:55:19.285Z,18.10
2019-01-02T21:58:07.358Z,15.37
2019-01-02T22:00:55.021Z,19.50
2019-01-02T22:03:42.855Z,15.60
2019-01-02T22:06:30.730Z,20.63
2019-01-02T22:09:18.486Z,15.47
2019-01-02T22:12:06.341Z,16.27
2019-01-02T22:14:54.275Z,18.13
2019-01-02T22:17:42.034Z,16.63
2019-01-02T22:20:29.750Z,16.53
2019-01-02T22:23:17.626Z,16.67
2019-01-02T22:26:05.745Z,14.60
2019-01-02T22:28:53.786Z,14.87
2019-01-02T22:31:41.661Z,15.03
2019-01-02T22:34:29.697Z,18.90
2019-01-02T22:37:17.461Z,16.97
2019-01-02T22:40:06.669Z,15.60
2019-01-02T22:42:54.318Z,13.63
2019-01-02T22:45:42.253Z,21.23
2019-01-02T22:48:30.125Z,16.27
2019-01-02T22:51:17.832Z,12.50
2019-01-02T22:54:05.488Z,18.57
2019-01-02T22:56:53.376Z,15.40
2019-01-02T22:59:41.161Z,17.90
2019-01-02T23:02:30.414Z,14.17
2019-01-02T23:05:19.863Z,13.40
2019-01-02T23:08:09.093Z,16.87
2019-01-02T23:11:07.433Z,18.97
2019-01-02T23:14:05.480Z,17.77
2019-01-02T23:17:00.893Z,21.23
2019-01-02T23:20:07.277Z,15.40
2019-01-02T23:23:13.230Z,17.40
2019-01-02T23:26:02.906Z,47.20
2019-01-02T23:28:52.774Z,64.10
2019-01-02T23:31:50.770Z,60.03
2019-01-02T23:34:56.577Z,65.53
2019-01-02T23:38:02.333Z,73.83
2019-01-02T23:41:01.248Z,78.03
2019-01-02T23:43:53.587Z,81.20
2019-01-02T23:46:59.816Z,77.93
2019-01-02T23:49:49.100Z,30.00
2019-01-02T23:52:44.748Z,42.57
2019-01-02T23:55:37.504Z,30.23
2019-01-02T23:58:41.995Z,25.93
